Hewanorra International Airport

TLPL · Vieux-Fort, 圣卢西亚

罗盘
风向 的 风向 090° Hewanorra International Airport 10/28
风: 15 kt, 4 beaufort

15 kt

改变
0 ft 1.000 2.000 3.000 4.000 5.000
Cloud Cloud
FEW 2.800
METAR TLPL 202000Z 09015KT 9999 FEW028 31/24 Q1012 NOSIG

METAR Hewanorra International Airport - TLPL/UVF

Hewanorra International Airport是,圣卢西亚中的大型机场。 该机场位于纬度13,73320和经度-60,95260。 该机场有一条跑道: 10/28. 本场的ICAO机场代码为TLPL。 该机场的IATA代码为UVF。 机场在Piarco FIR中。

该航空气象观测是针对Hewanorra International Airport在2024年5月20日 16:00, 当地时间进行的。

机场观察

风向为090°,速度为15 kt。

可见度为10 km 或者更多。

有几云在2.800 ft的高度。 没有观察到天花板。

温度和风寒是31 °C。 热指数为37。 露点为24 °C,相对湿度为66%。 海平面上的气压为1012 hPa (QNH)。

白天

今天,太阳从05:36升起,在18:24降落。 这适用于Hewanorra International Airport,世界夏令时可能有所不同。 当地时间与世界标准时间之间的时差为-4 小时。 夏令时目前正在进行中。

公司介绍

我们没有关于这个机场的公司信息。

体会

到Vliegles.nl去找飞行课程,跳伞和其他飞行体验。 浏览页面,了解Hewanorra International Airport附近所有可用的活动。 你也可以使用搜索功能来寻找你所在地附近的特定飞行课程、跳伞或其他飞行体验。

跑道

Id 标题 侧风 逆风 侧风 %
10/28 090°-270° 15 kt 0 %

逆风成分最大的方向会被突出显示,并用于横风计算。 这并不一定意味着这个方向在使用。

乌云

2.800 ft FEW 几云

温度 & 天气

温度 31 °C
露点 24 °C
相对湿度 66%
热度指数 37 °C
Kp-index 0 (0-9)

白天

日出
05:36
中午
12:00
日落
18:24 (33m)

小工具

你想在你的网站上有一个关于Hewanorra International Airport的当前航空天气(METAR)的小部件吗?

显示HTML代码
报告变更